Bowerman Airport
KHQM : rendu visible

Aérodrome :











RETROUVEZ-NOUS SUR...

 
LOGIN :

S'inscrire | Disclaimer

   EN    FR    IT 

 









Légende :    VFR   VFR Marginal   IFR   IFR Intensif   IFR Très Intensif
Visi : 
Plafond : 
>= 8 km
>= 3000ft
5 à 8 km
1000 à 3000 ft
1500m à 5 km
500 à 1000 ft
800 à 1500m
200 à 500 ft
< 800m
< 200 ft
Symboles :   Orages  Brouillard  Fortes neiges  Fortes précipitations  Vent > 20 kt






- Altitude de l'aérodrome : 18 ft


KHQM - Bowerman

DERNIER METAR :
  • 232053Z AUTO 28023G37KT 10SM SCT028 BKN037 08/03 A3008 RMK AO2 PK WND 28037/2045 RAB1954E03 SLP190 P0000 60000 T00830033 51033

METARs EXPIRÉS :
  • 231953Z AUTO 28023G32KT 10SM SCT028 OVC035 08/04 A3006 RMK AO2 PK WND 25034/1855 SLP181 T00830039
  • 231938Z AUTO 28022G31KT 10SM SCT029 BKN038 OVC055 08/04 A3005 RMK AO2 PK WND 25034/1855 T00830039
  • 231853Z AUTO 27021G27KT 10SM FEW025 BKN040 OVC090 08/06 A3002 RMK AO2 PK WND 25035/1803 RAB07E19B38E52 SLP168 P0000 T00780056
  • 231820Z AUTO 26023G32KT 10SM SCT026 BKN033 BKN047 08/06 A3000 RMK AO2 PK WND 25035/1803 RAB07E19 P0000 T00780061
  • 231753Z AUTO 25023KT 10SM BKN027 BKN035 08/06 A2999 RMK AO2 PK WND 26036/1733 RAB34E44 SLP157 P0002 60027 T00780056 10089 20061 51039

TAF KHQM
Valide du 23 à 18h jusqu'au 24 à 18h UTC


231741Z 2318/2418 27020G30KT P6SM SCT025 BKN040
TEMPO 2318/2322 -SHRA BKN025 BKN040
FM232200 27020G30KT P6SM SCT025 BKN040
TEMPO 2322/2402 -SHRA BKN025 BKN040
FM240900 24012KT P6SM SCT015 BKN025 OVC040



MET'MAP, la Météo Aéronautique d'un coup d'oeil ! - Copyright ORBIFLY Décembre 2007 - Disclaimer

ORBIFLY MET'MAP TEAM :

Programmation & Développement : Alexandra Zaïnal
Sur une idée originale de : Baudouin d'Aumeries
Assistance à la programmation : Marc-Olivier Méhu
Soutien technique & logistique : Manuel Goepfert

Contact : metmap@orbifly.com




SOURCES & CREDITS :

   NOAA       Earth
Advisory